Time;durP1;ratioP1;P1;durP2;ratioP2;P2;SDS_P1;SDS_P2;PMS_P1;PMS_P2;Temp;Humidity;BMP_temperature;BMP_pressure;BME280_temperature;BME280_humidity;BME280_pressure;Samples;Min_cycle;Max_cycle;Signal;HPM_P1;HPM_P2
2023/11/23 00:02:05;;;;;;;15.45;4.80;;;;;;;;;;4979020;28;20480;-67
2023/11/23 00:04:31;;;;;;;18.52;5.07;;;;;;;;;;4979715;28;20044;-67
2023/11/23 00:06:57;;;;;;;;;;;;;;;;;;4987661;28;20099;-65
2023/11/23 00:09:25;;;;;;;19.75;5.55;;;;;;;;;;5008163;28;19921;-65
2023/11/23 00:11:51;;;;;;;20.10;5.03;;;;;;;;;;4996989;28;20056;-66
2023/11/23 00:14:17;;;;;;;;;;;;;;;;;;5002158;28;20068;-65
2023/11/23 00:16:43;;;;;;;16.20;4.28;;;;;;;;;;4999204;28;19916;-67
2023/11/23 00:19:13;;;;;;;16.85;4.30;;;;;;;;;;5002881;28;20109;-66
2023/11/23 00:21:39;;;;;;;13.63;3.75;;;;;;;;;;4997326;28;20331;-66
2023/11/23 00:24:05;;;;;;;12.73;3.95;;;;;;;;;;5000988;28;20551;-66
2023/11/23 00:26:33;;;;;;;;;;;;;;;;;;4999329;28;20731;-66
2023/11/23 00:28:59;;;;;;;17.25;4.20;;;;;;;;;;4996439;28;20534;-66
2023/11/23 00:31:25;;;;;;;;;;;;;;;;;;4989732;28;20018;-66
2023/11/23 00:33:52;;;;;;;17.13;4.63;;;;;;;;;;4965915;28;19923;-67
2023/11/23 00:36:18;;;;;;;;;;;;;;;;;;5010069;28;20108;-65
2023/11/23 00:38:45;;;;;;;15.90;4.10;;;;;;;;;;5002351;28;19955;-65
2023/11/23 00:41:11;;;;;;;16.70;4.50;;;;;;;;;;5007156;28;20029;-65
2023/11/23 00:43:38;;;;;;;14.95;4.28;;;;;;;;;;4999778;28;20037;-66
2023/11/23 00:46:04;;;;;;;16.73;4.00;;;;;;;;;;5004408;28;20033;-66
2023/11/23 00:48:31;;;;;;;15.63;4.25;;;;;;;;;;5003404;28;20017;-66
2023/11/23 00:50:58;;;;;;;16.00;4.93;;;;;;;;;;5024643;28;20565;-65
2023/11/23 00:53:24;;;;;;;20.23;5.28;;;;;;;;;;5006360;28;20030;-67
2023/11/23 00:55:50;;;;;;;14.20;4.00;;;;;;;;;;4984651;28;20472;-65
2023/11/23 00:58:16;;;;;;;17.08;4.20;;;;;;;;;;5001731;28;20036;-65
2023/11/23 01:00:43;;;;;;;;;;;;;;;;;;5002380;28;21133;-67
2023/11/23 01:03:09;;;;;;;17.13;4.57;;;;;;;;;;5005293;28;20149;-67
2023/11/23 01:05:35;;;;;;;;;;;;;;;;;;5003313;28;20115;-66
2023/11/23 01:08:02;;;;;;;19.98;5.13;;;;;;;;;;4995837;28;19933;-65
2023/11/23 01:10:28;;;;;;;16.48;4.65;;;;;;;;;;4965372;28;20032;-66
2023/11/23 01:12:54;;;;;;;16.33;4.25;;;;;;;;;;4980674;28;20519;-66
2023/11/23 01:15:23;;;;;;;20.17;4.90;;;;;;;;;;4966686;28;21415;-66
2023/11/23 01:17:49;;;;;;;19.25;4.93;;;;;;;;;;4965761;28;20293;-66
2023/11/23 01:20:15;;;;;;;19.45;5.65;;;;;;;;;;4960887;28;20038;-66
2023/11/23 01:22:42;;;;;;;16.65;4.40;;;;;;;;;;4960332;28;20047;-67
2023/11/23 01:25:08;;;;;;;18.38;4.22;;;;;;;;;;4965445;28;20301;-66
2023/11/23 01:27:34;;;;;;;;;;;;;;;;;;4964332;28;20026;-66
2023/11/23 01:30:00;;;;;;;14.52;4.30;;;;;;;;;;4989091;28;20358;-66
2023/11/23 01:32:27;;;;;;;;;;;;;;;;;;4971264;28;20071;-66
2023/11/23 01:34:53;;;;;;;15.45;3.97;;;;;;;;;;4967539;28;20229;-66
2023/11/23 01:37:19;;;;;;;19.20;4.55;;;;;;;;;;4968573;28;20607;-66
2023/11/23 01:39:45;;;;;;;16.63;4.32;;;;;;;;;;4965047;28;20429;-66
2023/11/23 01:42:12;;;;;;;14.75;4.38;;;;;;;;;;4970010;28;20049;-66
2023/11/23 01:44:38;;;;;;;18.35;4.47;;;;;;;;;;4968103;28;20037;-67
2023/11/23 01:47:06;;;;;;;16.27;3.90;;;;;;;;;;5005681;28;20018;-67
2023/11/23 01:49:34;;;;;;;14.95;4.50;;;;;;;;;;5003143;28;20236;-67
2023/11/23 01:52:00;;;;;;;16.67;4.38;;;;;;;;;;5009321;28;20072;-66
2023/11/23 01:54:27;;;;;;;16.48;4.57;;;;;;;;;;5008830;28;20052;-66
2023/11/23 01:56:54;;;;;;;19.48;4.75;;;;;;;;;;5008508;28;20025;-67
2023/11/23 01:59:20;;;;;;;17.45;4.60;;;;;;;;;;5008389;28;20259;-67
2023/11/23 02:01:46;;;;;;;19.92;4.63;;;;;;;;;;5004459;28;20021;-67
2023/11/23 02:04:12;;;;;;;;;;;;;;;;;;5007769;28;20045;-67
2023/11/23 02:06:38;;;;;;;17.27;5.03;;;;;;;;;;5004217;28;19927;-67
2023/11/23 02:09:04;;;;;;;15.93;5.43;;;;;;;;;;5005042;28;20033;-67
2023/11/23 02:11:31;;;;;;;;;;;;;;;;;;4991236;28;20057;-67
2023/11/23 02:13:58;;;;;;;15.25;4.07;;;;;;;;;;5006104;28;19951;-67
2023/11/23 02:16:25;;;;;;;19.02;5.03;;;;;;;;;;4990187;28;20029;-67
2023/11/23 02:18:51;;;;;;;14.90;4.35;;;;;;;;;;4988413;28;20050;-65
2023/11/23 02:21:17;;;;;;;16.50;4.38;;;;;;;;;;5003064;28;20245;-66
2023/11/23 02:23:43;;;;;;;18.10;4.78;;;;;;;;;;4985371;28;20748;-65
2023/11/23 02:26:09;;;;;;;15.52;4.57;;;;;;;;;;5008313;28;20606;-65
2023/11/23 02:28:35;;;;;;;17.98;4.57;;;;;;;;;;5001928;28;20104;-65
2023/11/23 02:31:02;;;;;;;20.55;4.85;;;;;;;;;;5004071;28;20029;-65
2023/11/23 02:33:28;;;;;;;15.90;4.53;;;;;;;;;;5000846;28;20580;-66
2023/11/23 02:35:54;;;;;;;18.27;4.68;;;;;;;;;;5002353;28;20032;-66
2023/11/23 02:38:21;;;;;;;16.92;4.43;;;;;;;;;;5003109;28;20326;-66
2023/11/23 02:40:47;;;;;;;18.40;4.88;;;;;;;;;;5003779;28;20678;-65
2023/11/23 02:43:13;;;;;;;17.38;4.18;;;;;;;;;;5008640;28;20105;-66
2023/11/23 02:45:41;;;;;;;18.73;4.15;;;;;;;;;;5009519;28;20037;-65
2023/11/23 02:48:08;;;;;;;17.70;4.35;;;;;;;;;;5006074;28;20025;-66
2023/11/23 02:50:34;;;;;;;15.60;3.90;;;;;;;;;;4998048;28;20033;-66
2023/11/23 02:53:01;;;;;;;18.00;4.78;;;;;;;;;;5019764;28;20029;-66
2023/11/23 02:55:28;;;;;;;14.27;4.28;;;;;;;;;;5004026;28;20029;-66
2023/11/23 02:57:54;;;;;;;18.45;4.53;;;;;;;;;;5008954;28;20368;-66
2023/11/23 03:00:20;;;;;;;20.15;4.88;;;;;;;;;;5011002;28;20378;-67
2023/11/23 03:02:46;;;;;;;20.75;4.70;;;;;;;;;;5002892;28;20034;-67
2023/11/23 03:05:12;;;;;;;17.85;4.38;;;;;;;;;;5011193;28;20492;-67
2023/11/23 03:07:39;;;;;;;19.98;4.63;;;;;;;;;;4987089;28;20095;-67
2023/11/23 03:10:05;;;;;;;;;;;;;;;;;;5008698;28;20624;-67
2023/11/23 03:12:31;;;;;;;16.58;4.43;;;;;;;;;;4996659;28;19920;-67
2023/11/23 03:14:58;;;;;;;18.80;4.45;;;;;;;;;;5002476;28;20445;-67
2023/11/23 03:17:24;;;;;;;17.85;4.75;;;;;;;;;;5002872;28;20060;-67
2023/11/23 03:19:50;;;;;;;18.17;4.45;;;;;;;;;;4999069;28;20029;-67
2023/11/23 03:22:16;;;;;;;18.45;4.80;;;;;;;;;;4997286;28;20037;-65
2023/11/23 03:24:42;;;;;;;17.38;4.72;;;;;;;;;;5002795;28;20042;-66
2023/11/23 03:27:09;;;;;;;19.70;4.88;;;;;;;;;;5006905;28;20033;-66
2023/11/23 03:29:35;;;;;;;20.20;4.47;;;;;;;;;;4998416;28;20110;-66
2023/11/23 03:32:02;;;;;;;;;;;;;;;;;;5005193;28;20034;-66
2023/11/23 03:34:28;;;;;;;17.03;4.80;;;;;;;;;;5004195;28;19913;-68
2023/11/23 03:36:55;;;;;;;18.30;4.50;;;;;;;;;;4984706;28;20287;-66
2023/11/23 03:39:21;;;;;;;17.85;5.03;;;;;;;;;;5002060;28;20037;-66
2023/11/23 03:41:47;;;;;;;;;;;;;;;;;;5004268;28;20487;-67
2023/11/23 03:44:14;;;;;;;19.48;5.28;;;;;;;;;;5006197;28;20351;-65
2023/11/23 03:46:40;;;;;;;;;;;;;;;;;;5002511;28;20268;-66
2023/11/23 03:49:06;;;;;;;20.17;5.10;;;;;;;;;;5006381;28;19917;-66
2023/11/23 03:51:32;;;;;;;20.38;5.00;;;;;;;;;;4991337;28;20478;-67
2023/11/23 03:53:59;;;;;;;18.02;4.80;;;;;;;;;;5005366;28;20041;-66
2023/11/23 03:56:25;;;;;;;21.75;4.78;;;;;;;;;;5004994;28;20021;-65
2023/11/23 03:58:51;;;;;;;19.10;5.00;;;;;;;;;;4998023;28;20030;-65
2023/11/23 04:01:18;;;;;;;17.08;4.63;;;;;;;;;;4998709;28;20116;-65
2023/11/23 04:03:44;;;;;;;20.25;5.28;;;;;;;;;;4986415;28;20044;-65
2023/11/23 04:06:11;;;;;;;21.25;5.38;;;;;;;;;;5002994;28;20025;-65
2023/11/23 04:08:39;;;;;;;19.40;5.20;;;;;;;;;;4999703;28;20054;-65
2023/11/23 04:11:05;;;;;;;20.48;5.15;;;;;;;;;;5021331;28;20032;-67
2023/11/23 04:13:31;;;;;;;;;;;;;;;;;;4999338;28;20037;-68
2023/11/23 04:15:57;;;;;;;19.70;5.30;;;;;;;;;;5006828;28;20224;-67
2023/11/23 04:18:23;;;;;;;23.95;5.32;;;;;;;;;;5004603;28;20092;-67
2023/11/23 04:20:49;;;;;;;15.95;4.43;;;;;;;;;;4997861;28;20686;-68
2023/11/23 04:23:16;;;;;;;19.13;5.65;;;;;;;;;;5005744;28;20464;-66
2023/11/23 04:25:42;;;;;;;21.73;5.05;;;;;;;;;;4997981;28;20457;-66
2023/11/23 04:28:08;;;;;;;17.45;4.60;;;;;;;;;;5003292;28;20223;-65
2023/11/23 04:30:34;;;;;;;17.55;4.78;;;;;;;;;;5001071;28;20112;-66
2023/11/23 04:33:00;;;;;;;17.67;4.90;;;;;;;;;;5005713;28;20039;-66
2023/11/23 04:35:27;;;;;;;22.52;5.47;;;;;;;;;;5006389;28;20553;-66
2023/11/23 04:37:54;;;;;;;16.73;4.95;;;;;;;;;;4986887;28;20049;-67
2023/11/23 04:40:20;;;;;;;19.17;4.63;;;;;;;;;;5006211;28;20419;-66
2023/11/23 04:42:47;;;;;;;19.10;4.85;;;;;;;;;;4997827;28;20945;-67
2023/11/23 04:45:13;;;;;;;19.55;5.25;;;;;;;;;;4990439;28;20132;-67
2023/11/23 04:47:39;;;;;;;18.30;5.05;;;;;;;;;;5003052;28;20283;-67
2023/11/23 04:50:05;;;;;;;20.20;5.10;;;;;;;;;;5006885;28;20442;-66
2023/11/23 04:52:31;;;;;;;;;;;;;;;;;;4999519;28;20625;-66
2023/11/23 04:54:57;;;;;;;27.40;5.80;;;;;;;;;;5007304;28;19913;-66
2023/11/23 04:57:23;;;;;;;19.92;5.28;;;;;;;;;;5002991;28;20041;-65
2023/11/23 04:59:50;;;;;;;21.60;5.20;;;;;;;;;;5004030;28;20239;-66
2023/11/23 05:02:16;;;;;;;17.88;5.22;;;;;;;;;;5005464;28;20033;-66
2023/11/23 05:04:42;;;;;;;19.08;4.82;;;;;;;;;;5003136;28;20034;-65
2023/11/23 05:07:09;;;;;;;20.10;5.30;;;;;;;;;;5004072;28;20057;-65
2023/11/23 05:09:35;;;;;;;20.15;5.35;;;;;;;;;;4998234;28;20729;-65
2023/11/23 05:12:01;;;;;;;22.52;5.30;;;;;;;;;;5005725;28;20021;-65
2023/11/23 05:14:27;;;;;;;18.98;5.00;;;;;;;;;;5005419;28;20480;-67
2023/11/23 05:16:53;;;;;;;21.65;4.90;;;;;;;;;;5015196;28;20435;-65
2023/11/23 05:19:20;;;;;;;23.67;5.57;;;;;;;;;;5006915;28;20095;-67
2023/11/23 05:21:47;;;;;;;20.80;5.38;;;;;;;;;;5002881;28;20033;-65
2023/11/23 05:24:13;;;;;;;20.38;5.22;;;;;;;;;;5001198;28;20040;-67
2023/11/23 05:26:39;;;;;;;19.48;5.05;;;;;;;;;;5000799;28;20546;-66
2023/11/23 05:29:06;;;;;;;20.08;5.28;;;;;;;;;;5006375;28;20031;-66
2023/11/23 05:31:32;;;;;;;23.42;5.43;;;;;;;;;;4985657;28;20431;-67
2023/11/23 05:33:58;;;;;;;21.58;5.95;;;;;;;;;;5017546;28;20083;-66
2023/11/23 05:36:24;;;;;;;25.20;5.90;;;;;;;;;;5002794;28;20029;-66
2023/11/23 05:38:50;;;;;;;17.50;5.38;;;;;;;;;;5002104;28;20126;-66
2023/11/23 05:41:16;;;;;;;22.10;5.40;;;;;;;;;;5005401;28;20042;-65
2023/11/23 05:43:43;;;;;;;20.75;5.78;;;;;;;;;;4998788;28;20361;-65
2023/11/23 05:46:09;;;;;;;21.13;5.85;;;;;;;;;;5002219;28;20845;-66
2023/11/23 05:48:35;;;;;;;23.05;5.47;;;;;;;;;;5001570;28;20068;-65
2023/11/23 05:51:01;;;;;;;21.60;5.45;;;;;;;;;;4998847;28;20037;-65
2023/11/23 05:53:28;;;;;;;24.33;6.50;;;;;;;;;;4999900;28;20059;-69
2023/11/23 05:55:54;;;;;;;24.90;5.47;;;;;;;;;;5003272;28;20026;-65
2023/11/23 05:58:20;;;;;;;17.52;5.10;;;;;;;;;;4998897;28;20247;-65
2023/11/23 06:00:46;;;;;;;21.88;6.00;;;;;;;;;;4979088;28;20085;-65
2023/11/23 06:03:12;;;;;;;22.08;5.28;;;;;;;;;;5001734;28;20029;-65
2023/11/23 06:05:38;;;;;;;22.50;5.03;;;;;;;;;;4996127;28;20070;-65
2023/11/23 06:08:05;;;;;;;20.10;5.30;;;;;;;;;;5002342;28;20064;-65
2023/11/23 06:10:33;;;;;;;21.70;5.13;;;;;;;;;;4998423;28;20268;-65
2023/11/23 06:13:00;;;;;;;19.60;5.68;;;;;;;;;;5006541;28;20347;-67
2023/11/23 06:15:26;;;;;;;20.52;5.82;;;;;;;;;;5004951;28;20116;-66
2023/11/23 06:17:52;;;;;;;20.42;5.75;;;;;;;;;;4987908;28;20037;-67
2023/11/23 06:20:18;;;;;;;23.30;5.80;;;;;;;;;;5005055;28;20031;-67
2023/11/23 06:22:44;;;;;;;20.77;4.88;;;;;;;;;;4998109;28;20045;-65
2023/11/23 06:25:12;;;;;;;21.75;5.10;;;;;;;;;;4999360;28;20558;-65
2023/11/23 06:27:38;;;;;;;23.20;5.63;;;;;;;;;;4998076;28;20033;-65
2023/11/23 06:30:05;;;;;;;19.65;5.45;;;;;;;;;;5006139;28;20036;-66
2023/11/23 06:32:31;;;;;;;18.27;5.32;;;;;;;;;;5001427;28;20407;-67
2023/11/23 06:34:58;;;;;;;20.30;5.03;;;;;;;;;;5006234;28;20083;-64
2023/11/23 06:37:24;;;;;;;21.13;5.72;;;;;;;;;;5004941;28;20036;-65
2023/11/23 06:39:52;;;;;;;21.13;5.00;;;;;;;;;;5003494;28;20492;-66
2023/11/23 06:42:20;;;;;;;18.45;5.35;;;;;;;;;;5005372;28;20687;-67
2023/11/23 06:44:46;;;;;;;19.83;5.50;;;;;;;;;;5001925;28;20388;-66
2023/11/23 06:47:12;;;;;;;;;;;;;;;;;;4987220;28;20102;-66
2023/11/23 06:49:40;;;;;;;16.80;5.00;;;;;;;;;;4998705;28;20326;-66
2023/11/23 06:52:06;;;;;;;18.35;5.10;;;;;;;;;;5003676;28;20030;-66
2023/11/23 06:54:33;;;;;;;18.13;5.07;;;;;;;;;;4999838;28;20032;-65
2023/11/23 06:56:59;;;;;;;17.63;5.35;;;;;;;;;;5008933;28;20064;-65
2023/11/23 06:59:25;;;;;;;20.27;4.95;;;;;;;;;;5007675;28;20529;-65
2023/11/23 07:01:51;;;;;;;20.80;4.97;;;;;;;;;;4982509;28;20026;-66
2023/11/23 07:04:17;;;;;;;18.02;5.25;;;;;;;;;;5007303;28;20133;-66
2023/11/23 07:06:44;;;;;;;19.83;5.15;;;;;;;;;;5002413;28;20103;-66
2023/11/23 07:09:13;;;;;;;24.60;6.03;;;;;;;;;;5004688;28;20120;-66
2023/11/23 07:11:40;;;;;;;20.50;5.55;;;;;;;;;;5001139;28;20021;-66
2023/11/23 07:14:06;;;;;;;18.08;5.30;;;;;;;;;;5009004;28;20420;-66
2023/11/23 07:16:32;;;;;;;;;;;;;;;;;;5004668;28;20030;-66
2023/11/23 07:18:58;;;;;;;19.15;5.13;;;;;;;;;;5018524;28;20443;-66
2023/11/23 07:21:24;;;;;;;18.50;4.78;;;;;;;;;;5004039;28;20042;-67
2023/11/23 07:23:50;;;;;;;21.95;5.30;;;;;;;;;;5003775;28;20439;-64
2023/11/23 07:26:16;;;;;;;20.45;4.93;;;;;;;;;;5003580;28;20086;-67
2023/11/23 07:28:43;;;;;;;19.45;4.95;;;;;;;;;;4987633;28;20033;-66
2023/11/23 07:31:09;;;;;;;15.80;5.18;;;;;;;;;;5006310;28;20033;-67
2023/11/23 07:33:35;;;;;;;;;;;;;;;;;;5002268;28;20026;-67
2023/11/23 07:36:05;;;;;;;21.83;6.45;;;;;;;;;;5006144;28;19914;-66
2023/11/23 07:38:34;;;;;;;24.30;6.15;;;;;;;;;;4997138;28;20065;-65
2023/11/23 07:41:05;;;;;;;19.33;5.13;;;;;;;;;;5004443;28;20526;-67
2023/11/23 07:43:31;;;;;;;21.17;4.95;;;;;;;;;;4995731;28;20094;-64
2023/11/23 07:45:57;;;;;;;15.65;4.95;;;;;;;;;;5002116;28;20234;-65
2023/11/23 07:48:24;;;;;;;21.65;5.32;;;;;;;;;;4985821;28;20029;-65
2023/11/23 07:50:50;;;;;;;;;;;;;;;;;;5000816;28;20041;-65
2023/11/23 07:53:16;;;;;;;19.40;4.70;;;;;;;;;;5000258;28;19913;-65
2023/11/23 07:55:43;;;;;;;18.27;4.75;;;;;;;;;;5001386;28;20022;-65
2023/11/23 07:58:09;;;;;;;;;;;;;;;;;;5004369;28;20021;-66
2023/11/23 08:00:37;;;;;;;18.92;5.28;;;;;;;;;;5000984;28;19947;-65
2023/11/23 08:03:05;;;;;;;18.83;5.07;;;;;;;;;;5005678;28;20455;-68
2023/11/23 08:05:31;;;;;;;17.92;4.55;;;;;;;;;;4997939;28;20107;-68
2023/11/23 08:07:57;;;;;;;18.30;4.38;;;;;;;;;;5005679;28;20053;-66
2023/11/23 08:10:23;;;;;;;;;;;;;;;;;;5007858;28;20025;-67
2023/11/23 08:12:49;;;;;;;19.45;4.28;;;;;;;;;;5002946;28;20345;-68
2023/11/23 08:15:15;;;;;;;;;;;;;;;;;;5005334;28;20029;-67
2023/11/23 08:17:42;;;;;;;18.00;4.50;;;;;;;;;;4998101;28;19912;-65
2023/11/23 08:20:09;;;;;;;20.55;4.30;;;;;;;;;;5007568;28;20083;-67
2023/11/23 08:22:36;;;;;;;16.17;3.92;;;;;;;;;;5003109;28;20025;-67
2023/11/23 08:25:02;;;;;;;12.40;3.97;;;;;;;;;;5004002;28;20056;-67
2023/11/23 08:27:28;;;;;;;;;;;;;;;;;;5000493;28;20799;-68
2023/11/23 08:29:55;;;;;;;17.63;4.07;;;;;;;;;;5005034;28;19975;-67
2023/11/23 08:32:21;;;;;;;14.90;3.97;;;;;;;;;;5001150;28;20087;-67
2023/11/23 08:34:48;;;;;;;18.33;4.50;;;;;;;;;;5000479;28;20056;-67
2023/11/23 08:37:15;;;;;;;14.63;3.47;;;;;;;;;;5004160;28;20056;-66
2023/11/23 08:39:41;;;;;;;15.82;3.95;;;;;;;;;;5001155;28;20479;-66
2023/11/23 08:42:07;;;;;;;;;;;;;;;;;;5001588;28;20129;-66
2023/11/23 08:44:33;;;;;;;14.83;3.50;;;;;;;;;;4996199;28;19921;-66
2023/11/23 08:47:00;;;;;;;16.10;3.50;;;;;;;;;;4999846;28;20017;-68
2023/11/23 08:49:26;;;;;;;15.93;3.60;;;;;;;;;;4999962;28;20032;-66
2023/11/23 08:51:53;;;;;;;16.48;3.95;;;;;;;;;;4997576;28;20098;-66
2023/11/23 08:54:19;;;;;;;17.40;3.47;;;;;;;;;;5000071;28;20320;-67
2023/11/23 08:56:46;;;;;;;16.00;3.90;;;;;;;;;;4983336;28;20036;-67
2023/11/23 08:59:12;;;;;;;14.30;3.45;;;;;;;;;;4998788;28;20025;-66
2023/11/23 09:01:38;;;;;;;13.30;3.65;;;;;;;;;;5003180;28;20475;-68
2023/11/23 09:04:05;;;;;;;19.60;3.70;;;;;;;;;;4998712;28;20025;-68
2023/11/23 09:06:31;;;;;;;12.25;3.50;;;;;;;;;;5003913;28;20032;-66
2023/11/23 09:09:00;;;;;;;16.98;3.72;;;;;;;;;;5004089;28;20349;-68
2023/11/23 09:11:27;;;;;;;15.63;3.50;;;;;;;;;;4986421;28;20034;-67
2023/11/23 09:13:53;;;;;;;13.18;3.25;;;;;;;;;;5008058;28;20164;-68
2023/11/23 09:16:20;;;;;;;11.52;2.88;;;;;;;;;;5002676;28;20038;-66
2023/11/23 09:18:46;;;;;;;14.52;3.22;;;;;;;;;;5001997;28;20037;-67
2023/11/23 09:21:12;;;;;;;18.25;3.30;;;;;;;;;;5005010;28;20395;-65
2023/11/23 09:23:39;;;;;;;14.90;3.40;;;;;;;;;;5001291;28;20432;-67
2023/11/23 09:26:07;;;;;;;11.70;3.60;;;;;;;;;;5002184;28;20402;-66
2023/11/23 09:28:33;;;;;;;10.10;3.13;;;;;;;;;;4998017;28;20026;-66
2023/11/23 09:30:59;;;;;;;16.08;4.20;;;;;;;;;;5001997;28;20504;-68
2023/11/23 09:33:26;;;;;;;16.15;4.15;;;;;;;;;;5022398;28;20686;-68
2023/11/23 09:35:52;;;;;;;15.50;3.60;;;;;;;;;;5002339;28;20030;-68
2023/11/23 09:38:19;;;;;;;13.18;3.20;;;;;;;;;;4998153;28;20080;-67
2023/11/23 09:40:45;;;;;;;14.60;3.28;;;;;;;;;;5000681;28;20138;-67
2023/11/23 09:43:11;;;;;;;15.02;2.72;;;;;;;;;;5005656;28;20099;-69
2023/11/23 09:45:37;;;;;;;18.80;3.22;;;;;;;;;;4998923;28;20451;-68
2023/11/23 09:48:04;;;;;;;15.85;3.45;;;;;;;;;;5020283;28;20511;-67
2023/11/23 09:50:31;;;;;;;16.80;4.47;;;;;;;;;;4985329;28;20113;-67
2023/11/23 09:52:57;;;;;;;15.10;3.58;;;;;;;;;;5025934;28;20580;-67
2023/11/23 09:55:25;;;;;;;12.68;3.28;;;;;;;;;;5003961;28;20175;-66
2023/11/23 09:57:52;;;;;;;12.73;3.50;;;;;;;;;;5001756;28;20036;-67
2023/11/23 10:00:18;;;;;;;18.20;3.90;;;;;;;;;;5003521;28;20048;-67
2023/11/23 10:02:58;;;;;;;13.10;3.55;;;;;;;;;;5004477;28;20381;-67
2023/11/23 10:05:24;;;;;;;13.23;3.42;;;;;;;;;;5005616;28;20062;-67
2023/11/23 10:07:53;;;;;;;14.75;3.40;;;;;;;;;;5006415;28;20800;-67
2023/11/23 10:10:20;;;;;;;12.18;3.50;;;;;;;;;;5007654;28;20025;-68
2023/11/23 10:12:48;;;;;;;12.98;3.08;;;;;;;;;;4987457;28;20036;-68
2023/11/23 10:15:14;;;;;;;14.50;3.17;;;;;;;;;;4985262;28;20060;-67
2023/11/23 10:17:41;;;;;;;15.82;4.22;;;;;;;;;;5006618;28;20412;-67
2023/11/23 10:20:09;;;;;;;12.23;3.58;;;;;;;;;;4985755;28;20304;-67
2023/11/23 10:22:35;;;;;;;13.23;3.70;;;;;;;;;;5000377;28;20053;-67
2023/11/23 10:25:02;;;;;;;17.58;3.90;;;;;;;;;;5005910;28;20065;-67
2023/11/23 10:27:29;;;;;;;12.75;3.00;;;;;;;;;;5001688;28;20033;-68
2023/11/23 10:29:55;;;;;;;15.57;3.33;;;;;;;;;;5006370;28;20067;-67
2023/11/23 10:32:22;;;;;;;12.30;3.25;;;;;;;;;;5006720;28;20027;-67
2023/11/23 10:34:48;;;;;;;13.15;3.58;;;;;;;;;;5004395;28;20037;-67
2023/11/23 10:37:18;;;;;;;14.68;3.40;;;;;;;;;;5007526;28;20368;-68
2023/11/23 10:39:44;;;;;;;13.48;3.42;;;;;;;;;;5006444;28;20045;-67
2023/11/23 10:42:16;;;;;;;14.50;3.80;;;;;;;;;;5009380;28;20025;-67
2023/11/23 10:44:42;;;;;;;12.32;3.28;;;;;;;;;;4981460;28;20094;-67
2023/11/23 10:47:10;;;;;;;13.18;3.47;;;;;;;;;;5005435;28;20032;-67
2023/11/23 10:49:37;;;;;;;17.20;4.13;;;;;;;;;;5001377;28;20381;-67
2023/11/23 10:52:04;;;;;;;12.50;3.20;;;;;;;;;;5000091;28;20132;-67
2023/11/23 10:54:30;;;;;;;13.50;3.17;;;;;;;;;;5001519;28;20046;-68
2023/11/23 10:56:58;;;;;;;15.15;3.35;;;;;;;;;;5021122;28;20455;-67
2023/11/23 10:59:25;;;;;;;12.95;3.08;;;;;;;;;;5005605;28;20063;-68
2023/11/23 11:01:52;;;;;;;11.63;3.00;;;;;;;;;;5017909;28;20088;-67
2023/11/23 11:04:19;;;;;;;14.18;3.67;;;;;;;;;;5001650;28;20034;-68
2023/11/23 11:06:47;;;;;;;12.75;3.35;;;;;;;;;;4999785;28;20064;-68
2023/11/23 11:09:16;;;;;;;14.38;3.72;;;;;;;;;;5004976;28;20033;-66
2023/11/23 11:11:47;;;;;;;16.08;3.42;;;;;;;;;;5002133;28;20601;-67
2023/11/23 11:14:13;;;;;;;12.63;3.45;;;;;;;;;;5004108;28;20033;-69
2023/11/23 11:16:40;;;;;;;14.90;3.45;;;;;;;;;;5000027;28;20022;-69
2023/11/23 11:19:06;;;;;;;13.77;3.28;;;;;;;;;;5002749;28;20100;-67
2023/11/23 11:21:48;;;;;;;14.23;3.22;;;;;;;;;;4998424;28;20092;-69
2023/11/23 11:24:21;;;;;;;12.38;3.05;;;;;;;;;;5006577;28;20033;-69
2023/11/23 11:26:47;;;;;;;11.02;3.05;;;;;;;;;;4984021;28;20034;-70
2023/11/23 11:29:13;;;;;;;12.40;2.97;;;;;;;;;;4997384;28;20128;-67
2023/11/23 11:31:40;;;;;;;15.98;4.80;;;;;;;;;;4998131;28;20025;-68
2023/11/23 11:34:12;;;;;;;15.15;5.90;;;;;;;;;;4999769;28;20034;-70
2023/11/23 11:36:38;;;;;;;16.52;5.57;;;;;;;;;;4999465;28;20060;-68
2023/11/23 11:39:05;;;;;;;13.43;4.78;;;;;;;;;;5005577;28;20026;-67
2023/11/23 11:41:34;;;;;;;15.05;5.03;;;;;;;;;;5004124;28;20555;-68
2023/11/23 11:44:01;;;;;;;13.55;4.35;;;;;;;;;;5001487;28;20051;-67
2023/11/23 11:46:31;;;;;;;15.20;4.07;;;;;;;;;;5006882;28;20103;-66
2023/11/23 11:48:58;;;;;;;13.88;4.13;;;;;;;;;;5006011;28;20038;-68
2023/11/23 11:51:31;;;;;;;13.73;3.85;;;;;;;;;;5000131;28;20108;-68
2023/11/23 11:54:01;;;;;;;12.40;3.28;;;;;;;;;;5004124;28;20025;-68
2023/11/23 11:56:28;;;;;;;13.18;3.30;;;;;;;;;;5007699;28;20028;-71
2023/11/23 11:58:54;;;;;;;14.93;3.55;;;;;;;;;;5002941;28;20101;-67
2023/11/23 12:01:21;;;;;;;13.77;3.47;;;;;;;;;;4984631;28;20480;-67
2023/11/23 12:03:47;;;;;;;11.18;2.90;;;;;;;;;;5016809;28;20037;-67
2023/11/23 12:06:13;;;;;;;13.18;3.13;;;;;;;;;;5006690;28;20075;-66
2023/11/23 12:08:39;;;;;;;11.32;2.83;;;;;;;;;;4997010;28;20483;-66
2023/11/23 12:11:06;;;;;;;12.43;2.75;;;;;;;;;;5006491;28;20026;-66
2023/11/23 12:13:35;;;;;;;11.88;2.70;;;;;;;;;;4997096;28;20053;-68
2023/11/23 12:16:03;;;;;;;11.10;2.50;;;;;;;;;;5002626;28;20052;-67
2023/11/23 12:18:35;;;;;;;10.20;2.72;;;;;;;;;;5002785;28;20041;-67
2023/11/23 12:21:01;;;;;;;11.82;3.20;;;;;;;;;;5001765;28;20961;-67
2023/11/23 12:23:28;;;;;;;10.02;2.70;;;;;;;;;;4999926;28;20128;-67
2023/11/23 12:25:55;;;;;;;10.60;2.78;;;;;;;;;;4979876;28;20041;-68
2023/11/23 12:28:22;;;;;;;11.98;2.67;;;;;;;;;;4988813;28;20379;-68
2023/11/23 12:30:49;;;;;;;11.18;2.40;;;;;;;;;;4998326;28;20762;-68
2023/11/23 12:33:16;;;;;;;8.80;2.40;;;;;;;;;;5002403;28;20036;-69
2023/11/23 12:35:43;;;;;;;12.02;2.85;;;;;;;;;;5000629;28;20541;-69
2023/11/23 12:38:09;;;;;;;9.90;2.33;;;;;;;;;;5003997;28;20060;-69
2023/11/23 12:40:35;;;;;;;13.20;3.03;;;;;;;;;;4997356;28;20039;-69
2023/11/23 12:43:02;;;;;;;11.07;3.08;;;;;;;;;;5001925;28;20606;-68
2023/11/23 12:45:28;;;;;;;10.88;3.00;;;;;;;;;;5000046;28;20037;-69
2023/11/23 12:47:54;;;;;;;12.40;3.00;;;;;;;;;;5003187;28;20041;-69
2023/11/23 12:50:24;;;;;;;8.65;2.67;;;;;;;;;;5004158;28;20475;-68
2023/11/23 12:52:50;;;;;;;9.95;2.78;;;;;;;;;;4982796;28;20380;-67
2023/11/23 12:55:18;;;;;;;10.60;2.75;;;;;;;;;;5005207;28;20064;-70
2023/11/23 12:57:47;;;;;;;10.55;2.78;;;;;;;;;;4999254;28;20046;-69
2023/11/23 13:00:13;;;;;;;9.57;2.40;;;;;;;;;;5003307;28;20029;-68
2023/11/23 13:02:40;;;;;;;11.13;2.60;;;;;;;;;;4984773;28;20025;-70
2023/11/23 13:05:06;;;;;;;11.45;3.08;;;;;;;;;;4998972;28;20095;-69
2023/11/23 13:07:33;;;;;;;11.77;3.13;;;;;;;;;;5002320;28;20188;-69
2023/11/23 13:09:59;;;;;;;10.60;2.95;;;;;;;;;;5001770;28;20025;-69
2023/11/23 13:12:26;;;;;;;14.77;3.20;;;;;;;;;;5001850;28;20371;-69
2023/11/23 13:14:53;;;;;;;15.35;3.33;;;;;;;;;;4997072;28;20472;-69
2023/11/23 13:17:19;;;;;;;12.45;2.95;;;;;;;;;;5005703;28;20590;-69
2023/11/23 13:19:47;;;;;;;13.48;3.38;;;;;;;;;;5000157;28;20029;-69
2023/11/23 13:22:15;;;;;;;13.23;2.90;;;;;;;;;;5002770;28;20457;-68
2023/11/23 13:24:42;;;;;;;14.23;2.97;;;;;;;;;;5002850;28;20467;-69
2023/11/23 13:27:08;;;;;;;11.43;3.10;;;;;;;;;;5007663;28;20033;-69
2023/11/23 13:29:37;;;;;;;14.98;2.97;;;;;;;;;;5002655;28;20060;-69
2023/11/23 13:32:05;;;;;;;11.38;3.05;;;;;;;;;;5007019;28;20083;-69
2023/11/23 13:34:36;;;;;;;12.00;2.88;;;;;;;;;;5005220;28;20134;-70
2023/11/23 13:37:04;;;;;;;8.95;2.50;;;;;;;;;;4993275;28;20519;-70
2023/11/23 13:39:31;;;;;;;12.88;3.28;;;;;;;;;;5006150;28;20017;-69
2023/11/23 13:41:57;;;;;;;14.80;2.90;;;;;;;;;;5005279;28;20267;-68
2023/11/23 13:44:24;;;;;;;9.48;2.58;;;;;;;;;;5008093;28;20913;-69
2023/11/23 13:46:51;;;;;;;13.93;3.70;;;;;;;;;;5003117;28;20044;-68
2023/11/23 13:49:18;;;;;;;14.32;3.85;;;;;;;;;;4987839;28;20064;-68
2023/11/23 13:51:44;;;;;;;11.80;3.22;;;;;;;;;;5003031;28;20049;-68
2023/11/23 13:54:11;;;;;;;12.75;3.40;;;;;;;;;;5006189;28;20379;-68
2023/11/23 13:56:39;;;;;;;14.02;3.85;;;;;;;;;;5002439;28;20040;-68
2023/11/23 13:59:06;;;;;;;13.23;4.28;;;;;;;;;;5008836;28;20029;-68
2023/11/23 14:01:33;;;;;;;11.77;3.15;;;;;;;;;;5004622;28;20349;-67
2023/11/23 14:04:01;;;;;;;12.63;3.28;;;;;;;;;;5005794;28;20035;-68
2023/11/23 14:06:29;;;;;;;12.13;3.30;;;;;;;;;;5009135;28;20064;-67
2023/11/23 14:08:55;;;;;;;13.93;6.22;;;;;;;;;;5020099;28;20038;-68
2023/11/23 14:11:21;;;;;;;11.80;3.47;;;;;;;;;;5005438;28;20107;-69
2023/11/23 14:13:54;;;;;;;12.60;3.40;;;;;;;;;;5002129;28;20037;-69
2023/11/23 14:16:21;;;;;;;12.98;2.90;;;;;;;;;;5007066;28;20029;-67
2023/11/23 14:18:47;;;;;;;9.23;2.50;;;;;;;;;;5004049;28;20509;-67
2023/11/23 14:21:13;;;;;;;12.07;2.40;;;;;;;;;;4990223;28;20434;-66
2023/11/23 14:23:40;;;;;;;11.20;2.75;;;;;;;;;;5001683;28;20033;-69
2023/11/23 14:26:08;;;;;;;14.25;3.47;;;;;;;;;;4990175;28;20042;-67
2023/11/23 14:28:34;;;;;;;10.23;2.70;;;;;;;;;;5004730;28;20034;-67
2023/11/23 14:31:02;;;;;;;10.45;2.40;;;;;;;;;;4991573;28;20360;-67
2023/11/23 14:33:28;;;;;;;10.85;3.30;;;;;;;;;;5002950;28;20048;-67
2023/11/23 14:35:56;;;;;;;10.90;2.80;;;;;;;;;;5003217;28;20033;-68